createdAt,value
2023-03-14T00:00:32.221Z,3.10
2023-03-14T00:05:59.385Z,3.40
2023-03-14T00:11:11.196Z,2.90
2023-03-14T00:16:19.093Z,2.80
2023-03-14T00:21:26.362Z,3.30
2023-03-14T00:26:33.819Z,2.50
2023-03-14T00:31:41.081Z,2.50
2023-03-14T00:36:48.370Z,2.70
2023-03-14T00:44:20.361Z,2.90
2023-03-14T00:49:28.463Z,3.10
2023-03-14T00:54:38.605Z,3.00
2023-03-14T00:59:46.789Z,2.90
2023-03-14T01:04:55.601Z,2.80
2023-03-14T01:10:04.580Z,3.90
2023-03-14T01:15:14.398Z,2.90
2023-03-14T01:20:24.538Z,3.30
2023-03-14T01:25:33.435Z,2.50
2023-03-14T01:30:41.175Z,2.60
2023-03-14T01:35:51.924Z,3.20
2023-03-14T01:41:00.157Z,3.00
2023-03-14T01:46:28.574Z,2.70
2023-03-14T01:51:41.712Z,3.10
2023-03-14T01:56:55.866Z,3.30
2023-03-14T02:02:07.142Z,3.30
2023-03-14T02:07:19.335Z,3.40
2023-03-14T02:12:31.115Z,3.80
2023-03-14T02:17:40.416Z,3.20
2023-03-14T02:22:49.577Z,3.40
2023-03-14T02:27:58.044Z,3.30
2023-03-14T02:33:11.251Z,3.60
2023-03-14T02:38:28.192Z,3.70
2023-03-14T02:48:46.605Z,3.70
2023-03-14T02:53:54.046Z,3.10
2023-03-14T02:59:01.702Z,3.30
2023-03-14T03:04:11.047Z,3.90
2023-03-14T03:09:19.074Z,3.90
2023-03-14T03:14:27.762Z,4.00
2023-03-14T03:19:36.083Z,4.20
2023-03-14T03:24:43.570Z,3.30
2023-03-14T03:29:50.998Z,3.60
2023-03-14T03:34:59.002Z,3.60
2023-03-14T03:40:07.781Z,3.30
2023-03-14T03:45:18.551Z,3.50
2023-03-14T03:50:26.150Z,3.60
2023-03-14T03:55:34.067Z,4.20
2023-03-14T04:00:41.840Z,4.40
2023-03-14T04:06:00.043Z,5.20
2023-03-14T04:11:09.742Z,4.10
2023-03-14T04:16:21.782Z,4.20
2023-03-14T04:21:29.724Z,4.00
2023-03-14T04:26:37.677Z,4.00
2023-03-14T04:31:45.661Z,3.10
2023-03-14T04:36:53.659Z,4.90
2023-03-14T04:42:01.124Z,4.30
2023-03-14T04:47:09.072Z,4.30
2023-03-14T04:52:18.057Z,3.80
2023-03-14T04:57:25.671Z,5.10
2023-03-14T05:02:33.310Z,5.30
2023-03-14T05:07:40.801Z,5.60
2023-03-14T05:16:32.516Z,6.30
2023-03-14T05:21:40.241Z,6.40
2023-03-14T05:26:47.424Z,5.60
2023-03-14T05:31:54.533Z,6.30
2023-03-14T05:42:08.148Z,5.20
2023-03-14T05:47:15.508Z,5.60
2023-03-14T05:52:23.506Z,6.40
2023-03-14T05:57:30.807Z,5.70
2023-03-14T06:07:43.683Z,6.80
2023-03-14T06:12:50.883Z,4.80
2023-03-14T06:23:05.275Z,7.60
2023-03-14T06:28:12.479Z,5.90
2023-03-14T06:33:19.788Z,6.40
2023-03-14T06:38:28.271Z,7.20
2023-03-14T06:43:35.942Z,7.10
2023-03-14T06:48:43.430Z,6.70
2023-03-14T06:53:50.857Z,9.40
2023-03-14T06:58:58.180Z,8.70
2023-03-14T07:04:06.193Z,9.30
2023-03-14T07:09:14.365Z,7.60
2023-03-14T07:14:22.048Z,7.30
2023-03-14T07:19:30.211Z,7.20
2023-03-14T07:24:37.470Z,6.30
2023-03-14T07:29:45.365Z,6.50
2023-03-14T07:34:53.251Z,6.10
2023-03-14T07:40:00.772Z,5.90
2023-03-14T07:45:10.138Z,5.70
2023-03-14T07:50:17.923Z,5.90
2023-03-14T07:55:25.547Z,5.20
2023-03-14T08:00:32.836Z,5.80
2023-03-14T08:05:41.252Z,6.90
2023-03-14T08:10:48.587Z,6.60
2023-03-14T08:15:55.765Z,4.30
2023-03-14T08:21:03.687Z,4.40
2023-03-14T08:26:11.156Z,4.30
2023-03-14T08:31:18.569Z,4.20
2023-03-14T08:36:25.794Z,4.50
2023-03-14T08:44:44.838Z,4.00
2023-03-14T08:49:52.285Z,4.50
2023-03-14T08:54:59.660Z,4.10
2023-03-14T09:00:13.192Z,3.70
2023-03-14T09:05:20.660Z,4.10
2023-03-14T09:10:28.056Z,4.40
2023-03-14T09:15:35.489Z,6.20
2023-03-14T09:20:44.167Z,4.50
2023-03-14T09:25:51.545Z,5.10
2023-03-14T09:30:59.210Z,4.60
2023-03-14T09:36:07.104Z,4.30
2023-03-14T09:41:23.605Z,7.20
2023-03-14T09:46:32.406Z,4.20
2023-03-14T09:51:40.147Z,5.10
2023-03-14T09:56:47.641Z,4.90
2023-03-14T10:01:55.012Z,4.90
2023-03-14T10:07:04.349Z,5.10
2023-03-14T10:12:14.013Z,5.00
2023-03-14T10:17:22.796Z,4.70
2023-03-14T10:22:33.946Z,5.10
2023-03-14T10:27:41.358Z,5.10
2023-03-14T10:32:50.323Z,4.30
2023-03-14T10:38:02.180Z,4.40
2023-03-14T10:43:16.515Z,4.20
2023-03-14T10:48:27.163Z,5.00
2023-03-14T10:53:44.028Z,5.60
2023-03-14T11:04:04.437Z,5.20
2023-03-14T11:09:20.806Z,4.50
2023-03-14T11:14:36.425Z,5.10
2023-03-14T11:20:05.495Z,6.00
2023-03-14T11:25:28.796Z,6.50
2023-03-14T11:30:44.519Z,4.70
2023-03-14T11:36:01.117Z,4.70
2023-03-14T11:41:17.206Z,5.20
2023-03-14T11:46:29.091Z,5.70
2023-03-14T11:51:41.182Z,5.70
2023-03-14T11:56:54.680Z,5.20
2023-03-14T12:02:05.509Z,5.60
2023-03-14T12:07:22.758Z,5.20
2023-03-14T12:12:32.531Z,5.20
2023-03-14T12:17:43.389Z,6.60
2023-03-14T12:22:52.884Z,4.80
2023-03-14T12:28:19.599Z,5.90
2023-03-14T12:33:34.995Z,5.00
2023-03-14T12:38:54.906Z,5.50
2023-03-14T12:44:39.975Z,4.80
2023-03-14T12:49:49.009Z,5.80
2023-03-14T12:55:02.676Z,5.30
2023-03-14T13:00:22.470Z,6.40
2023-03-14T13:05:29.988Z,5.60
2023-03-14T13:10:48.373Z,5.50
2023-03-14T13:16:01.488Z,5.30
2023-03-14T13:21:14.038Z,5.80
2023-03-14T13:26:21.349Z,6.80
2023-03-14T13:31:31.609Z,6.40
2023-03-14T13:36:39.343Z,6.40
2023-03-14T13:41:47.032Z,5.60
2023-03-14T13:46:54.664Z,5.80
2023-03-14T13:52:02.106Z,5.60
2023-03-14T13:57:10.331Z,6.30
2023-03-14T14:02:18.852Z,5.50
2023-03-14T14:07:26.994Z,5.90
2023-03-14T14:12:39.179Z,5.80
2023-03-14T14:17:49.950Z,5.60
2023-03-14T14:22:57.596Z,5.70
2023-03-14T14:28:20.228Z,4.30
2023-03-14T14:33:27.528Z,6.90
2023-03-14T14:38:34.885Z,5.80
2023-03-14T14:43:43.645Z,5.90
2023-03-14T14:48:52.843Z,4.70
2023-03-14T14:54:11.790Z,5.00
2023-03-14T14:59:31.001Z,4.30
2023-03-14T15:04:38.652Z,4.60
2023-03-14T15:09:47.465Z,4.60
2023-03-14T15:14:58.466Z,3.90
2023-03-14T15:20:06.621Z,4.50
2023-03-14T15:25:36.916Z,4.30
2023-03-14T15:30:41.860Z,3.50
2023-03-14T15:35:50.175Z,4.10
2023-03-14T15:40:57.378Z,3.50
2023-03-14T15:46:07.510Z,4.20
2023-03-14T15:51:15.382Z,4.80
2023-03-14T15:56:25.425Z,4.80
2023-03-14T16:01:33.488Z,4.10
2023-03-14T16:06:40.711Z,4.80
2023-03-14T16:11:49.261Z,5.90
2023-03-14T16:17:00.491Z,4.00
2023-03-14T16:22:08.308Z,5.00
2023-03-14T16:27:15.638Z,5.10
2023-03-14T16:32:23.617Z,5.60
2023-03-14T16:37:31.325Z,5.10
2023-03-14T16:42:46.829Z,6.60
2023-03-14T16:48:02.676Z,6.20
2023-03-14T16:53:11.821Z,4.90
2023-03-14T16:58:21.426Z,5.80
2023-03-14T17:03:29.397Z,5.90
2023-03-14T17:08:37.184Z,6.10
2023-03-14T17:13:45.585Z,7.10
2023-03-14T17:18:53.399Z,7.30
2023-03-14T17:24:00.808Z,6.70
2023-03-14T17:29:08.505Z,6.20
2023-03-14T17:34:16.129Z,8.00
2023-03-14T17:39:23.845Z,11.60
2023-03-14T17:44:32.168Z,7.00
2023-03-14T17:49:40.661Z,7.70
2023-03-14T17:54:48.107Z,10.20
2023-03-14T17:59:56.330Z,10.40
2023-03-14T18:05:04.345Z,10.20
2023-03-14T18:10:14.580Z,10.20
2023-03-14T18:15:22.506Z,10.50
2023-03-14T18:20:30.371Z,10.00
2023-03-14T18:25:37.776Z,11.10
2023-03-14T18:30:47.415Z,11.00
2023-03-14T18:35:55.855Z,11.00
2023-03-14T18:41:08.992Z,17.00
2023-03-14T18:46:17.219Z,12.20
2023-03-14T18:51:26.265Z,11.00
2023-03-14T18:56:34.297Z,10.70
2023-03-14T19:12:11.419Z,11.40
2023-03-14T19:17:19.237Z,11.80
2023-03-14T19:22:26.636Z,10.60
2023-03-14T19:27:34.662Z,12.90
2023-03-14T19:32:42.534Z,11.90
2023-03-14T19:37:50.078Z,12.50
2023-03-14T19:42:57.612Z,11.20
2023-03-14T19:48:06.650Z,12.40
2023-03-14T19:53:14.443Z,12.60
2023-03-14T19:58:22.184Z,13.30
2023-03-14T20:03:29.793Z,13.00
2023-03-14T20:08:37.500Z,12.80
2023-03-14T20:13:45.483Z,14.00
2023-03-14T20:18:53.122Z,14.20
2023-03-14T20:24:00.835Z,12.80
2023-03-14T20:29:08.425Z,9.90
2023-03-14T20:34:15.678Z,12.60
2023-03-14T20:44:38.125Z,10.80
2023-03-14T20:49:45.530Z,11.10
2023-03-14T20:54:53.063Z,10.50
2023-03-14T21:00:00.669Z,10.30
2023-03-14T21:05:10.025Z,10.00
2023-03-14T21:10:18.222Z,10.80
2023-03-14T21:15:26.032Z,10.90
2023-03-14T21:20:33.719Z,10.30
2023-03-14T21:25:44.106Z,9.70
2023-03-14T21:30:51.955Z,11.00
2023-03-14T21:35:59.310Z,10.70
2023-03-14T21:41:07.973Z,12.50
2023-03-14T21:46:16.136Z,12.20
2023-03-14T21:51:31.489Z,12.00
2023-03-14T21:56:39.235Z,10.00
2023-03-14T22:01:46.951Z,10.00
2023-03-14T22:06:54.416Z,9.40
2023-03-14T22:12:02.248Z,7.10
2023-03-14T22:17:09.941Z,7.00
2023-03-14T22:22:17.242Z,6.90
2023-03-14T22:27:24.464Z,7.40
2023-03-14T22:32:32.259Z,7.60
2023-03-14T22:37:41.442Z,6.30
2023-03-14T22:42:49.925Z,5.80
2023-03-14T22:47:57.184Z,4.70
2023-03-14T22:53:04.743Z,8.50
2023-03-14T22:58:12.251Z,4.00
2023-03-14T23:03:20.377Z,4.10
2023-03-14T23:08:28.003Z,4.70
2023-03-14T23:13:36.862Z,3.90
2023-03-14T23:18:45.470Z,3.70
2023-03-14T23:23:53.909Z,3.00
2023-03-14T23:29:01.514Z,3.40
2023-03-14T23:34:09.415Z,12.30
2023-03-14T23:39:16.731Z,4.30
2023-03-14T23:44:26.816Z,3.60
2023-03-14T23:49:34.434Z,5.40
2023-03-14T23:54:42.108Z,10.60
2023-03-14T23:59:49.514Z,10.10
